Aérodrome :
LOGIN :

S'inscrire | Disclaimer

   EN    FR    IT 

 










Légende :    VFR   VFR Marginal   IFR   IFR Intensif   IFR Très Intensif
Visi : 
Plafond : 
>= 8 km
>= 3000ft
5 à 8 km
1000 à 3000 ft
1500m à 5 km
500 à 1000 ft
800 à 1500m
200 à 500 ft
< 800m
< 200 ft
Symboles :   Orages  Brouillard  Fortes neiges  Fortes précipitations  Vent > 20 kt
SIGMETs :   Divers  Orages  Givrage  Turbulence  Onde Orograph.  Cendres Volcan.






- Altitude de l'aérodrome : 580 ft


LFOA - Avord

DERNIER METAR :
  • 121830Z AUTO 18014KT 9999 -DZ BKN026 OVC031 07/05 Q0991 TEMPO 3000 RA BECMG 24015G30KT BKN025TCU

METARs EXPIRÉS :
  • 121800Z AUTO 18015KT 9999 -RA BKN028 BKN036 OVC043 07/05 Q0992 TEMPO 3000 RA BKN007 BECMG 18015G25KT
  • 121730Z AUTO 17014KT 8000 -RA BKN025/// BKN031/// OVC037/// ///CB 06/05 Q0992 TEMPO 3000 RA BKN007 BECMG 18015G25KT
  • 121700Z AUTO 17012KT 8000 RA SCT027/// BKN033/// OVC039/// ///CB 06/05 Q0993 TEMPO 3000 RA BKN007 BECMG 18015G25KT
  • 121630Z AUTO 17012KT 9000 RA BKN029/// OVC036/// ///TCU 07/04 Q0994 TEMPO 3000 RA BKN007 BECMG 18015G25KT
  • 121600Z AUTO 17012KT 9999 -RA BKN030/// BKN035/// OVC086/// ///TCU 07/04 Q0995 TEMPO 3000 RA BKN007 BECMG 18015G25KT

TAF AMD TAF LFOA
Valide du 12 à 18h jusqu'au 13 à 15h UTC


121815Z 1218/1315 18015G25KT 9999 BKN025 OVC040
PROB40
TEMPO 1218/1220 22020G35KT 3000 RA SCT007 BKN012
BECMG 1220/1222 24015G30KT BKN025TCU
TEMPO 1304/1312 27020G40KT 3000 SHRA BKN030TCU
PROB40
TEMPO 1304/1311 30030G50KT



MET'MAP, la Météo Aéronautique d'un coup d'oeil ! - Copyright ORBIFLY Décembre 2007 - Disclaimer

ORBIFLY MET'MAP TEAM :

Programmation & Développement : Alexandra Zaïnal
Sur une idée originale de : Baudouin d'Aumeries
Assistance à la programmation : Marc-Olivier Méhu
Soutien technique & logistique : Manuel Goepfert

Contact : metmap@orbifly.com




SOURCES & CREDITS :

   NOAA